createdAt,value
2018-05-03T00:00:42.508Z,7.97
2018-05-03T00:03:08.248Z,7.80
2018-05-03T00:05:33.976Z,7.83
2018-05-03T00:07:59.692Z,7.33
2018-05-03T00:10:25.429Z,8.00
2018-05-03T00:12:51.164Z,8.13
2018-05-03T00:15:16.904Z,7.43
2018-05-03T00:17:42.628Z,8.07
2018-05-03T00:20:08.357Z,7.97
2018-05-03T00:22:34.076Z,8.07
2018-05-03T00:24:59.799Z,7.00
2018-05-03T00:27:25.520Z,7.27
2018-05-03T00:29:51.252Z,6.93
2018-05-03T00:32:16.969Z,7.43
2018-05-03T00:34:42.697Z,7.90
2018-05-03T00:37:08.411Z,6.77
2018-05-03T00:39:34.132Z,7.20
2018-05-03T00:41:59.848Z,7.43
2018-05-03T00:44:25.581Z,7.60
2018-05-03T00:46:51.313Z,7.07
2018-05-03T00:49:17.044Z,6.93
2018-05-03T00:51:42.784Z,7.40
2018-05-03T00:54:20.817Z,6.97
2018-05-03T00:56:46.544Z,7.03
2018-05-03T00:59:12.287Z,7.30
2018-05-03T01:01:38.001Z,7.73
2018-05-03T01:04:03.733Z,6.60
2018-05-03T01:06:29.465Z,6.77
2018-05-03T01:08:55.240Z,6.53
2018-05-03T01:11:20.976Z,6.93
2018-05-03T01:13:46.713Z,7.20
2018-05-03T01:16:12.459Z,7.43
2018-05-03T01:18:38.184Z,7.03
2018-05-03T01:21:03.912Z,7.17
2018-05-03T01:23:29.633Z,7.03
2018-05-03T01:25:55.368Z,6.77
2018-05-03T01:28:21.090Z,6.70
2018-05-03T01:30:46.824Z,7.33
2018-05-03T01:33:12.556Z,6.47
2018-05-03T01:35:50.853Z,6.90
2018-05-03T01:38:16.580Z,6.80
2018-05-03T01:40:42.317Z,7.50
2018-05-03T01:43:08.040Z,6.50
2018-05-03T01:45:33.772Z,7.00
2018-05-03T01:47:59.488Z,6.37
2018-05-03T01:50:25.223Z,6.30
2018-05-03T01:52:50.955Z,6.37
2018-05-03T01:55:16.764Z,6.10
2018-05-03T01:57:42.492Z,6.73
2018-05-03T02:00:08.228Z,6.90
2018-05-03T02:02:33.960Z,6.13
2018-05-03T02:04:59.707Z,6.53
2018-05-03T02:07:25.439Z,6.63
2018-05-03T02:09:51.168Z,6.87
2018-05-03T02:12:16.891Z,6.00
2018-05-03T02:14:42.612Z,6.40
2018-05-03T02:17:08.347Z,6.00
2018-05-03T02:19:34.085Z,6.53
2018-05-03T02:21:59.803Z,7.57
2018-05-03T02:24:25.527Z,7.20
2018-05-03T02:26:51.256Z,6.33
2018-05-03T02:29:16.993Z,6.80
2018-05-03T02:31:42.729Z,6.87
2018-05-03T02:34:08.461Z,6.47
2018-05-03T02:36:34.200Z,7.20
2018-05-03T02:38:59.924Z,6.73
2018-05-03T02:41:25.656Z,7.20
2018-05-03T02:43:51.371Z,6.70
2018-05-03T02:46:17.108Z,6.90
2018-05-03T02:48:42.836Z,6.30
2018-05-03T02:51:08.568Z,7.00
2018-05-03T02:53:34.307Z,7.27
2018-05-03T02:56:00.043Z,6.93
2018-05-03T02:58:38.272Z,6.57
2018-05-03T03:01:22.813Z,6.97
2018-05-03T03:04:07.293Z,6.95
2018-05-03T03:06:51.620Z,6.97
2018-05-03T03:09:36.019Z,6.65
2018-05-03T03:26:01.423Z,7.72
2018-05-03T03:28:45.929Z,7.47
2018-05-03T03:31:30.355Z,7.57
2018-05-03T03:34:15.972Z,7.50
2018-05-03T03:40:08.272Z,7.30
2018-05-03T03:56:14.069Z,8.07
2018-05-03T03:58:39.808Z,7.97
2018-05-03T04:01:05.532Z,8.30
2018-05-03T04:03:31.267Z,8.03
2018-05-03T04:05:57.008Z,8.63
2018-05-03T04:08:22.749Z,8.10
2018-05-03T04:10:48.476Z,8.37
2018-05-03T04:13:14.196Z,8.50
2018-05-03T04:15:39.925Z,7.90
2018-05-03T04:18:17.900Z,8.47
2018-05-03T04:21:07.559Z,7.77
2018-05-03T04:23:45.887Z,7.93
2018-05-03T04:26:11.628Z,8.67
2018-05-03T04:28:37.369Z,8.97
2018-05-03T04:31:03.095Z,8.40
2018-05-03T04:33:28.832Z,7.97
2018-05-03T04:35:54.551Z,8.77
2018-05-03T04:38:20.324Z,8.63
2018-05-03T04:40:46.065Z,8.43
2018-05-03T04:43:11.803Z,9.20
2018-05-03T04:45:37.536Z,8.97
2018-05-03T04:48:03.268Z,9.33
2018-05-03T04:50:29.016Z,9.00
2018-05-03T04:52:54.768Z,9.03
2018-05-03T04:55:20.529Z,8.73
2018-05-03T04:57:46.368Z,9.27
2018-05-03T05:00:12.201Z,10.13
2018-05-03T05:02:37.937Z,10.30
2018-05-03T05:05:03.679Z,10.17
2018-05-03T05:07:29.415Z,10.13
2018-05-03T05:09:55.153Z,10.77
2018-05-03T05:12:20.888Z,11.40
2018-05-03T05:14:46.619Z,11.40
2018-05-03T05:17:12.341Z,11.60
2018-05-03T05:19:38.075Z,12.10
2018-05-03T05:22:03.808Z,11.90
2018-05-03T05:24:29.622Z,13.47
2018-05-03T05:26:55.465Z,12.33
2018-05-03T05:29:21.198Z,13.43
2018-05-03T05:31:46.936Z,13.57
2018-05-03T05:34:12.657Z,15.33
2018-05-03T05:36:38.393Z,15.43
2018-05-03T05:39:04.198Z,12.83
2018-05-03T05:41:29.899Z,10.30
2018-05-03T05:43:55.645Z,10.20
2018-05-03T05:46:21.419Z,8.87
2018-05-03T05:48:47.161Z,5.47
2018-05-03T05:51:13.098Z,4.60
2018-05-03T05:53:38.836Z,4.73
2018-05-03T05:56:04.559Z,3.93
2018-05-03T05:58:30.293Z,3.93
2018-05-03T06:00:56.028Z,3.47
2018-05-03T06:03:21.765Z,4.03
2018-05-03T06:05:47.512Z,4.30
2018-05-03T06:08:13.250Z,3.87
2018-05-03T06:10:38.995Z,4.20
2018-05-03T06:13:04.733Z,4.07
2018-05-03T06:15:30.467Z,4.60
2018-05-03T06:17:56.198Z,4.07
2018-05-03T06:20:21.928Z,4.33
2018-05-03T06:22:47.670Z,3.67
2018-05-03T06:25:13.404Z,3.07
2018-05-03T06:27:39.146Z,3.53
2018-05-03T06:30:04.891Z,3.93
2018-05-03T06:32:30.632Z,3.40
2018-05-03T06:34:56.363Z,3.80
2018-05-03T06:37:22.117Z,3.40
2018-05-03T06:39:47.864Z,3.50
2018-05-03T06:42:13.600Z,3.20
2018-05-03T06:44:39.327Z,2.97
2018-05-03T06:47:05.072Z,3.03
2018-05-03T06:49:30.796Z,3.67
2018-05-03T06:51:56.546Z,2.97
2018-05-03T06:54:22.276Z,2.97
2018-05-03T06:56:48.020Z,2.90
2018-05-03T06:59:13.752Z,3.10
2018-05-03T07:01:39.480Z,2.70
2018-05-03T07:04:05.300Z,2.50
2018-05-03T07:06:30.955Z,2.70
2018-05-03T07:08:56.676Z,2.83
2018-05-03T07:11:22.397Z,2.73
2018-05-03T07:13:48.119Z,2.87
2018-05-03T07:16:13.842Z,2.30
2018-05-03T07:18:39.575Z,2.70
2018-05-03T07:21:05.304Z,2.70
2018-05-03T07:23:31.045Z,2.73
2018-05-03T07:25:56.793Z,2.60
2018-05-03T07:28:22.529Z,2.50
2018-05-03T07:30:48.260Z,2.70
2018-05-03T07:33:14.001Z,2.37
2018-05-03T07:35:39.728Z,2.80
2018-05-03T07:38:05.457Z,2.50
2018-05-03T07:40:31.170Z,2.30
2018-05-03T07:42:56.894Z,2.90
2018-05-03T07:45:22.603Z,2.80
2018-05-03T07:47:48.333Z,3.00
2018-05-03T07:50:14.065Z,2.67
2018-05-03T07:52:39.800Z,3.10
2018-05-03T07:55:05.518Z,2.40
2018-05-03T07:57:31.264Z,3.00
2018-05-03T07:59:56.996Z,3.03
2018-05-03T08:02:22.740Z,3.10
2018-05-03T08:04:48.455Z,2.97
2018-05-03T08:07:14.183Z,2.77
2018-05-03T08:09:39.912Z,3.10
2018-05-03T08:12:05.635Z,2.77
2018-05-03T08:14:31.375Z,2.80
2018-05-03T08:16:57.156Z,2.80
2018-05-03T08:19:22.864Z,3.13
2018-05-03T08:21:48.588Z,2.67
2018-05-03T08:24:14.324Z,2.60
2018-05-03T08:26:40.052Z,2.60
2018-05-03T08:29:05.785Z,2.70
2018-05-03T08:31:31.527Z,2.27
2018-05-03T08:33:57.261Z,2.57
2018-05-03T08:36:22.980Z,2.93
2018-05-03T08:38:48.716Z,2.63
2018-05-03T08:41:14.445Z,2.50
2018-05-03T08:43:40.196Z,2.60
2018-05-03T08:46:05.933Z,2.83
2018-05-03T08:48:31.677Z,2.47
2018-05-03T08:50:57.415Z,2.80
2018-05-03T08:53:23.170Z,3.20
2018-05-03T08:55:48.940Z,2.53
2018-05-03T08:58:14.676Z,2.40
2018-05-03T09:00:40.405Z,2.30
2018-05-03T09:03:06.150Z,2.40
2018-05-03T09:05:31.868Z,2.70
2018-05-03T09:07:57.601Z,2.40
2018-05-03T09:10:23.324Z,2.50
2018-05-03T09:12:49.045Z,2.63
2018-05-03T09:15:14.781Z,3.00
2018-05-03T09:17:40.508Z,2.60
2018-05-03T09:20:06.252Z,2.50
2018-05-03T09:22:32.029Z,2.33
2018-05-03T09:24:57.711Z,2.30
2018-05-03T09:27:23.432Z,2.70
2018-05-03T09:29:49.156Z,2.20
2018-05-03T09:32:14.885Z,2.30
2018-05-03T09:34:40.611Z,2.27
2018-05-03T09:37:06.320Z,2.80
2018-05-03T09:39:32.052Z,2.50
2018-05-03T09:41:57.763Z,2.40
2018-05-03T09:44:23.551Z,2.47
2018-05-03T09:46:49.217Z,2.60
2018-05-03T09:49:14.960Z,2.50
2018-05-03T09:51:40.684Z,2.67
2018-05-03T09:54:06.416Z,2.30
2018-05-03T09:56:32.132Z,2.00
2018-05-03T09:58:57.874Z,2.30
2018-05-03T10:01:23.587Z,2.73
2018-05-03T10:03:49.328Z,2.30
2018-05-03T10:06:15.060Z,2.00
2018-05-03T10:08:40.799Z,2.40
2018-05-03T10:11:06.523Z,2.53
2018-05-03T10:13:32.245Z,2.20
2018-05-03T10:15:57.961Z,2.53
2018-05-03T10:18:23.718Z,2.17
2018-05-03T10:20:49.415Z,2.80
2018-05-03T10:23:15.144Z,2.67
2018-05-03T10:25:40.881Z,2.77
2018-05-03T10:28:06.598Z,2.50
2018-05-03T10:30:32.332Z,2.40
2018-05-03T10:32:58.048Z,2.00
2018-05-03T10:35:23.772Z,2.70
2018-05-03T10:37:49.503Z,2.50
2018-05-03T10:40:15.224Z,2.17
2018-05-03T10:42:40.952Z,2.53
2018-05-03T10:45:06.681Z,2.30
2018-05-03T10:47:32.423Z,2.23
2018-05-03T10:49:58.165Z,2.63
2018-05-03T10:52:23.884Z,2.20
2018-05-03T10:54:49.616Z,2.03
2018-05-03T10:57:15.341Z,2.80
2018-05-03T10:59:41.071Z,2.27
2018-05-03T11:02:06.779Z,2.50
2018-05-03T11:04:32.492Z,2.40
2018-05-03T11:06:58.239Z,2.37
2018-05-03T11:09:23.968Z,2.73
2018-05-03T11:11:49.691Z,2.70
2018-05-03T11:14:15.425Z,2.30
2018-05-03T11:16:41.210Z,2.73
2018-05-03T11:19:06.874Z,2.47
2018-05-03T11:21:32.583Z,2.07
2018-05-03T11:23:58.325Z,2.50
2018-05-03T11:26:24.048Z,2.33
2018-05-03T11:28:49.772Z,2.77
2018-05-03T11:31:15.500Z,2.20
2018-05-03T11:33:41.220Z,2.90
2018-05-03T11:36:06.948Z,2.33
2018-05-03T11:38:32.659Z,2.10
2018-05-03T11:40:58.376Z,2.30
2018-05-03T11:43:24.096Z,2.00
2018-05-03T11:45:49.829Z,2.30
2018-05-03T11:48:15.539Z,2.13
2018-05-03T11:50:41.271Z,2.40
2018-05-03T11:53:06.993Z,2.83
2018-05-03T11:55:32.728Z,2.13
2018-05-03T11:57:58.464Z,1.90
2018-05-03T12:00:31.226Z,2.03
2018-05-03T12:02:56.969Z,2.00
2018-05-03T12:05:22.699Z,1.97
2018-05-03T12:07:48.419Z,2.00
2018-05-03T12:10:14.160Z,2.00
2018-05-03T12:12:39.871Z,2.10
2018-05-03T12:15:05.600Z,3.87
2018-05-03T12:17:31.323Z,2.17
2018-05-03T12:19:57.059Z,1.93
2018-05-03T12:22:22.789Z,2.03
2018-05-03T12:24:48.519Z,2.17
2018-05-03T12:27:14.236Z,1.73
2018-05-03T12:29:39.971Z,1.93
2018-05-03T12:32:05.705Z,1.93
2018-05-03T12:34:31.444Z,2.20
2018-05-03T12:36:57.175Z,2.17
2018-05-03T12:39:22.896Z,2.13
2018-05-03T12:41:48.632Z,2.00
2018-05-03T12:44:14.352Z,2.27
2018-05-03T12:46:40.085Z,1.77
2018-05-03T12:49:05.806Z,2.43
2018-05-03T12:51:31.552Z,2.13
2018-05-03T12:53:57.272Z,2.17
2018-05-03T12:56:23.005Z,2.00
2018-05-03T12:58:48.728Z,2.30
2018-05-03T13:01:14.454Z,2.20
2018-05-03T13:03:40.180Z,2.20
2018-05-03T13:06:05.908Z,2.23
2018-05-03T13:08:31.628Z,2.03
2018-05-03T13:10:57.368Z,1.77
2018-05-03T13:13:23.081Z,1.93
2018-05-03T13:15:48.823Z,1.77
2018-05-03T13:18:14.548Z,1.60
2018-05-03T13:20:40.279Z,1.90
2018-05-03T13:23:05.995Z,1.73
2018-05-03T13:25:31.723Z,1.50
2018-05-03T13:27:57.450Z,2.00
2018-05-03T13:30:23.200Z,1.93
2018-05-03T13:32:48.903Z,2.17
2018-05-03T13:35:14.631Z,2.10
2018-05-03T13:37:40.361Z,1.90
2018-05-03T13:40:06.107Z,1.60
2018-05-03T13:42:31.826Z,2.00
2018-05-03T13:44:57.548Z,1.90
2018-05-03T13:47:23.451Z,1.80
2018-05-03T13:49:49.004Z,1.80
2018-05-03T13:52:14.732Z,1.47
2018-05-03T13:54:40.454Z,1.60
2018-05-03T13:57:06.199Z,2.20
2018-05-03T13:59:31.924Z,1.63
2018-05-03T14:01:57.663Z,1.80
2018-05-03T14:04:23.374Z,1.70
2018-05-03T14:06:50.660Z,2.10
2018-05-03T14:09:20.319Z,1.80
2018-05-03T14:11:48.784Z,1.70
2018-05-03T14:14:14.984Z,2.10
2018-05-03T14:16:41.158Z,1.83
2018-05-03T14:19:08.076Z,1.60
2018-05-03T14:21:34.223Z,1.60
2018-05-03T14:24:00.367Z,1.93
2018-05-03T14:26:26.145Z,1.80
2018-05-03T14:28:51.864Z,2.13
2018-05-03T14:31:17.606Z,2.10
2018-05-03T14:33:43.326Z,2.10
2018-05-03T14:36:09.060Z,2.10
2018-05-03T14:38:34.775Z,1.80
2018-05-03T14:41:00.511Z,1.90
2018-05-03T14:43:26.239Z,2.07
2018-05-03T14:45:51.971Z,1.70
2018-05-03T14:48:17.692Z,1.77
2018-05-03T14:50:43.424Z,1.90
2018-05-03T14:53:09.151Z,2.10
2018-05-03T14:55:34.880Z,2.30
2018-05-03T14:58:00.620Z,2.00
2018-05-03T15:00:26.341Z,1.83
2018-05-03T15:02:52.071Z,2.03
2018-05-03T15:05:17.795Z,1.97
2018-05-03T15:07:43.529Z,2.10
2018-05-03T15:10:09.261Z,1.67
2018-05-03T15:12:35.052Z,2.17
2018-05-03T15:15:02.214Z,2.00
2018-05-03T15:17:29.385Z,2.20
2018-05-03T15:19:55.339Z,1.80
2018-05-03T15:22:21.076Z,1.97
2018-05-03T15:24:46.797Z,1.70
2018-05-03T15:27:12.525Z,1.73
2018-05-03T15:29:38.255Z,1.60
2018-05-03T15:32:03.985Z,1.90
2018-05-03T15:34:29.714Z,1.83
2018-05-03T15:36:56.559Z,1.90
2018-05-03T15:39:23.380Z,2.23
2018-05-03T15:41:49.128Z,1.97
2018-05-03T15:44:14.852Z,1.90
2018-05-03T15:46:40.582Z,2.03
2018-05-03T15:49:06.312Z,2.03
2018-05-03T15:51:32.047Z,2.17
2018-05-03T15:53:58.956Z,2.47
2018-05-03T15:56:25.891Z,2.10
2018-05-03T15:58:52.369Z,1.90
2018-05-03T16:01:18.112Z,2.10
2018-05-03T16:03:43.834Z,2.50
2018-05-03T16:06:09.548Z,2.00
2018-05-03T16:08:35.451Z,2.30
2018-05-03T16:11:01.181Z,1.93
2018-05-03T16:13:27.143Z,2.10
2018-05-03T16:15:52.965Z,2.23
2018-05-03T16:18:18.702Z,2.10
2018-05-03T16:20:44.476Z,2.07
2018-05-03T16:23:10.428Z,2.10
2018-05-03T16:25:36.199Z,2.10
2018-05-03T16:28:01.936Z,2.20
2018-05-03T16:30:27.760Z,1.80
2018-05-03T16:32:53.636Z,2.10
2018-05-03T16:35:19.352Z,2.33
2018-05-03T16:37:45.128Z,2.30
2018-05-03T16:40:10.869Z,2.30
2018-05-03T16:42:36.623Z,2.03
2018-05-03T16:45:02.361Z,1.90
2018-05-03T16:47:28.079Z,2.10
2018-05-03T16:49:53.799Z,1.80
2018-05-03T16:52:19.632Z,2.00
2018-05-03T16:54:45.288Z,2.57
2018-05-03T16:57:11.018Z,2.27
2018-05-03T16:59:36.747Z,2.13
2018-05-03T17:02:02.475Z,2.37
2018-05-03T17:04:28.210Z,3.90
2018-05-03T17:06:53.948Z,2.07
2018-05-03T17:09:19.681Z,2.30
2018-05-03T17:11:45.411Z,2.93
2018-05-03T17:14:11.176Z,2.27
2018-05-03T17:16:36.880Z,2.20
2018-05-03T17:19:02.629Z,2.10
2018-05-03T17:21:28.364Z,1.83
2018-05-03T17:23:54.101Z,2.10
2018-05-03T17:26:19.821Z,3.00
2018-05-03T17:28:45.574Z,2.40
2018-05-03T17:31:13.780Z,2.10
2018-05-03T17:33:39.692Z,1.80
2018-05-03T17:36:06.726Z,2.33
2018-05-03T17:38:32.717Z,2.30
2018-05-03T17:40:58.643Z,2.20
2018-05-03T17:43:24.647Z,2.00
2018-05-03T17:45:50.446Z,2.67
2018-05-03T17:48:16.191Z,2.30
2018-05-03T17:50:41.918Z,2.00
2018-05-03T17:53:07.647Z,2.30
2018-05-03T17:55:33.620Z,2.80
2018-05-03T17:57:59.454Z,2.43
2018-05-03T18:00:25.315Z,1.90
2018-05-03T18:02:51.136Z,2.40
2018-05-03T18:05:16.996Z,1.50
2018-05-03T18:07:42.956Z,1.97
2018-05-03T18:10:08.753Z,1.90
2018-05-03T18:12:34.608Z,2.30
2018-05-03T18:15:00.420Z,1.90
2018-05-03T18:17:26.184Z,2.07
2018-05-03T18:19:51.908Z,2.27
2018-05-03T18:22:17.641Z,2.40
2018-05-03T18:24:44.869Z,2.00
2018-05-03T18:27:11.715Z,1.80
2018-05-03T18:29:37.832Z,2.23
2018-05-03T18:32:03.703Z,2.07
2018-05-03T18:34:29.760Z,2.20
2018-05-03T18:36:55.492Z,2.03
2018-05-03T18:39:21.240Z,1.90
2018-05-03T18:41:47.000Z,2.30
2018-05-03T18:44:13.104Z,2.20
2018-05-03T18:46:39.048Z,2.47
2018-05-03T18:49:04.792Z,2.30
2018-05-03T18:51:30.607Z,2.83
2018-05-03T18:53:56.361Z,2.77
2018-05-03T18:56:22.101Z,2.57
2018-05-03T18:58:47.854Z,2.70
2018-05-03T19:01:13.845Z,2.90
2018-05-03T19:03:39.597Z,3.43
2018-05-03T19:06:05.337Z,2.97
2018-05-03T19:08:32.479Z,2.87
2018-05-03T19:10:59.606Z,3.20
2018-05-03T19:13:25.757Z,3.00
2018-05-03T19:15:51.912Z,2.67
2018-05-03T19:18:17.953Z,2.73
2018-05-03T19:20:44.057Z,3.80
2018-05-03T19:23:09.973Z,3.87
2018-05-03T19:25:35.920Z,8.00
2018-05-03T19:28:02.156Z,3.53
2018-05-03T19:30:28.337Z,3.50
2018-05-03T19:32:54.099Z,3.23
2018-05-03T19:35:19.835Z,2.90
2018-05-03T19:37:45.882Z,2.80
2018-05-03T19:40:11.624Z,2.87
2018-05-03T19:42:37.695Z,3.30
2018-05-03T19:45:03.444Z,3.57
2018-05-03T19:47:29.165Z,4.40
2018-05-03T19:49:54.897Z,3.63
2018-05-03T19:52:20.728Z,3.97
2018-05-03T19:54:46.498Z,3.23
2018-05-03T19:57:12.601Z,3.37
2018-05-03T19:59:38.617Z,2.83
2018-05-03T20:02:04.468Z,2.93
2018-05-03T20:04:30.747Z,2.90
2018-05-03T20:06:56.515Z,3.30
2018-05-03T20:09:22.503Z,3.97
2018-05-03T20:11:48.484Z,3.30
2018-05-03T20:14:14.674Z,2.47
2018-05-03T20:16:40.427Z,2.70
2018-05-03T20:19:06.481Z,2.73
2018-05-03T20:21:32.309Z,2.90
2018-05-03T20:23:58.472Z,2.67
2018-05-03T20:26:24.609Z,3.40
2018-05-03T20:28:50.387Z,2.63
2018-05-03T20:31:16.121Z,3.17
2018-05-03T20:33:41.881Z,2.87
2018-05-03T20:36:07.605Z,2.63
2018-05-03T20:38:33.329Z,3.00
2018-05-03T20:40:59.057Z,3.43
2018-05-03T20:43:24.781Z,3.13
2018-05-03T20:45:50.568Z,2.97
2018-05-03T20:48:16.255Z,3.10
2018-05-03T20:50:42.052Z,2.90
2018-05-03T20:53:07.775Z,3.47
2018-05-03T20:55:33.508Z,3.20
2018-05-03T20:57:59.376Z,3.47
2018-05-03T21:00:25.115Z,3.00
2018-05-03T21:02:50.847Z,3.57
2018-05-03T21:05:16.598Z,3.67
2018-05-03T21:07:42.345Z,2.97
2018-05-03T21:10:08.090Z,3.33
2018-05-03T21:12:33.857Z,3.80
2018-05-03T21:14:59.541Z,3.33
2018-05-03T21:17:25.272Z,3.87
2018-05-03T21:19:51.021Z,4.23
2018-05-03T21:22:16.753Z,4.13
2018-05-03T21:24:42.501Z,3.60
2018-05-03T21:27:08.226Z,4.40
2018-05-03T21:29:34.012Z,4.63
2018-05-03T21:31:59.753Z,4.23
2018-05-03T21:34:25.496Z,4.40
2018-05-03T21:36:51.223Z,4.07
2018-05-03T21:39:16.968Z,4.50
2018-05-03T21:41:42.686Z,3.93
2018-05-03T21:44:08.434Z,3.73
2018-05-03T21:46:34.160Z,3.63
2018-05-03T21:48:59.904Z,3.13
2018-05-03T21:51:25.644Z,3.30
2018-05-03T21:53:51.567Z,4.00
2018-05-03T21:56:17.292Z,3.20
2018-05-03T21:58:43.025Z,4.20
2018-05-03T22:01:08.769Z,3.43
2018-05-03T22:03:35.220Z,3.00
2018-05-03T22:06:00.981Z,3.25
2018-05-03T22:08:26.697Z,3.97
2018-05-03T22:10:52.432Z,4.00
2018-05-03T22:13:18.151Z,4.00
2018-05-03T22:15:44.004Z,4.27
2018-05-03T22:18:09.731Z,4.17
2018-05-03T22:20:35.467Z,4.00
2018-05-03T22:23:01.190Z,4.07
2018-05-03T22:25:26.908Z,4.03
2018-05-03T22:27:52.637Z,3.90
2018-05-03T22:30:18.388Z,4.10
2018-05-03T22:32:44.100Z,3.80
2018-05-03T22:35:09.832Z,3.80
2018-05-03T22:37:35.560Z,3.70
2018-05-03T22:40:01.300Z,3.80
2018-05-03T22:42:27.031Z,3.60
2018-05-03T22:44:52.775Z,3.47
2018-05-03T22:47:18.509Z,3.97
2018-05-03T22:49:44.253Z,3.90
2018-05-03T22:52:10.001Z,3.50
2018-05-03T22:54:35.796Z,4.03
2018-05-03T22:57:01.606Z,4.13
2018-05-03T22:59:27.357Z,4.63
2018-05-03T23:01:53.103Z,4.90
2018-05-03T23:04:18.836Z,3.90
2018-05-03T23:06:44.590Z,3.43
2018-05-03T23:09:10.305Z,3.90
2018-05-03T23:11:36.048Z,3.37
2018-05-03T23:14:01.783Z,3.90
2018-05-03T23:16:27.525Z,3.70
2018-05-03T23:18:53.261Z,3.63
2018-05-03T23:21:19.065Z,3.77
2018-05-03T23:23:44.801Z,4.60
2018-05-03T23:26:10.545Z,4.83
2018-05-03T23:28:36.280Z,4.90
2018-05-03T23:31:02.015Z,5.67
2018-05-03T23:33:27.776Z,5.00
2018-05-03T23:35:53.519Z,4.97
2018-05-03T23:38:19.271Z,5.00
2018-05-03T23:40:45.016Z,5.30
2018-05-03T23:43:11.797Z,4.60
2018-05-03T23:45:37.563Z,4.85
2018-05-03T23:48:03.312Z,5.17
2018-05-03T23:50:29.052Z,5.30
2018-05-03T23:52:54.791Z,4.97
2018-05-03T23:55:20.539Z,6.10
2018-05-03T23:57:46.260Z,5.23
